LFGJ 181530Z AUTO 36009KT CAVOK 22/17 Q1013 TEMPO 3000 SHRA FEW030CB BKN040

ElémentsDécodage
LFGJ Station météo située sur l'aérodrome de DOLE Tavaux
181530Z émis le 18 du mois à 15h30 UTC
AUTO Bulletin édité par un automate
36009KT vent du 360°, 09 noeuds
CAVOK Ceiling And Visibility OK
- Visibilité de 10 Km ou plus
- Pas de nuage au-dessous de 1500m ou au-dessous de l'altitude minimale du secteur la plus élevée (si>1500m) et absence de CB
- pas de temps présent significatif
22/17 température 22°C, point de rosée 17°C
 soit une humidité relative de 73%
Q1013 la pression au niveau de la mer (QNH) est de 1013 hPa
TEMPO fluctuation temporaire prévue
3000 visibilité horizontale de 3000 mètres
SHRA averse(s) de pluie
FEW030CB nuages rares (1/8 à 2/8) à 3000 pieds
 présence de cumulonimbus
BKN040 nuages morcelés (5/8 à 7/8) à 4000 pieds